Airfield :







YOU CAN JOIN US ON...

 
LOGIN :

Register | Disclaimer

   EN    FR    IT 

 









Legend :    VFR   Marginal VFR   IFR   Intensive IFR   Very Intensive IFR
Visi :
Ceiling :
>= 8 km
>= 3000ft
5 to 8 km
1000 to 3000 ft
1500m to 5 km
500 to 1000 ft
800 to 1500m
200 to 500 ft
< 800m
< 200 ft
Symbols :   Thunderstorms  Fog  Heavy snow  Heavy precipitations  Wind > 20 kt






- Airport Elevation : 27 ft
- IATA code : FSP


LFVP - St Pierre et Miquelon

CURRENT METAR :
  • 200100Z 11032G44KT 1600 -SN BLSN OVC002 M01/M02 Q0996 BECMG 1000 BR RASN

EXPIRED METARs :
  • 200000Z 10037G52KT 0750 R26/1000U SN BLSN VV/// M02/M02 Q0999 BECMG 1000 BR RASN
  • 192300Z 10035G52KT 0750 R26/0700U SN BLSN VV/// M03/M03 Q1002 NOSIG

TAF TAF LFVP
Valid from the 19 at 18:00 until the 20 at 03:00 UTC


191700Z 1918/2003 14020G30KT 9999 BKN020
BECMG 1919/1921 3000 -SN OVC010
BECMG 1921/1923 10035G50KT 0500 SN BLSN OVC003
BECMG 2001/2003 20025KT -RA BR



MET'MAP, your aeronautical weather chart ! - Copyright ORBIFLY December 2007 - Disclaimer

ORBIFLY MET'MAP TEAM :

Programming & Development : Alexandra Zaïnal
Concept & original design : Baudouin d'Aumeries
Assistance for programming : Marc-Olivier Méhu
Technical & hardware support : Manuel Goepfert

Contact : metmap@orbifly.com




SOURCES & CREDITS :

   NOAA